createdAt,value
2018-09-19T00:02:03.638Z,2.37
2018-09-19T00:04:32.194Z,2.60
2018-09-19T00:07:00.729Z,2.57
2018-09-19T00:09:29.251Z,2.23
2018-09-19T00:11:57.757Z,2.20
2018-09-19T00:14:26.298Z,2.70
2018-09-19T00:16:54.869Z,2.30
2018-09-19T00:19:23.415Z,2.13
2018-09-19T00:21:51.953Z,2.20
2018-09-19T00:24:20.438Z,1.90
2018-09-19T00:26:48.990Z,2.60
2018-09-19T00:29:17.521Z,2.57
2018-09-19T00:31:46.057Z,2.70
2018-09-19T00:34:14.567Z,2.37
2018-09-19T00:36:43.077Z,2.40
2018-09-19T00:39:11.590Z,2.90
2018-09-19T00:41:40.110Z,2.67
2018-09-19T00:44:08.677Z,2.87
2018-09-19T00:46:37.733Z,2.90
2018-09-19T00:49:06.318Z,2.73
2018-09-19T00:51:34.826Z,2.73
2018-09-19T00:54:03.355Z,2.73
2018-09-19T00:56:31.900Z,3.20
2018-09-19T00:59:00.419Z,2.47
2018-09-19T01:01:28.999Z,2.67
2018-09-19T01:03:57.492Z,2.97
2018-09-19T01:06:26.061Z,2.53
2018-09-19T01:08:54.937Z,2.67
2018-09-19T01:11:23.440Z,3.17
2018-09-19T01:13:51.973Z,2.80
2018-09-19T01:16:20.594Z,2.90
2018-09-19T01:18:49.121Z,3.60
2018-09-19T01:21:17.647Z,2.83
2018-09-19T01:23:46.211Z,2.97
2018-09-19T01:26:14.701Z,3.17
2018-09-19T01:28:43.338Z,3.73
2018-09-19T01:31:11.881Z,3.30
2018-09-19T01:33:40.415Z,3.33
2018-09-19T01:36:08.969Z,3.27
2018-09-19T01:38:37.489Z,3.33
2018-09-19T01:41:06.237Z,3.13
2018-09-19T01:43:34.818Z,3.43
2018-09-19T01:46:03.626Z,3.57
2018-09-19T01:48:32.210Z,3.30
2018-09-19T01:51:00.897Z,3.13
2018-09-19T01:53:29.413Z,3.23
2018-09-19T01:55:57.983Z,3.73
2018-09-19T01:58:26.508Z,3.70
2018-09-19T02:00:55.037Z,3.33
2018-09-19T02:03:23.554Z,2.93
2018-09-19T02:05:52.066Z,4.40
2018-09-19T02:08:20.637Z,3.07
2018-09-19T02:10:49.176Z,3.43
2018-09-19T02:13:17.768Z,3.93
2018-09-19T02:15:46.282Z,3.80
2018-09-19T02:18:14.913Z,3.77
2018-09-19T02:20:43.449Z,3.70
2018-09-19T02:23:12.016Z,3.40
2018-09-19T02:25:40.536Z,3.63
2018-09-19T02:28:09.114Z,3.30
2018-09-19T02:30:37.646Z,4.17
2018-09-19T02:33:06.233Z,3.67
2018-09-19T02:35:34.773Z,3.50
2018-09-19T02:38:03.339Z,3.40
2018-09-19T02:40:31.874Z,3.00
2018-09-19T02:43:00.455Z,3.90
2018-09-19T02:45:28.937Z,3.50
2018-09-19T02:47:57.527Z,3.63
2018-09-19T02:50:26.058Z,3.17
2018-09-19T02:52:54.581Z,3.67
2018-09-19T02:55:23.666Z,3.30
2018-09-19T02:57:52.262Z,3.53
2018-09-19T03:00:21.120Z,3.20
2018-09-19T03:02:49.940Z,3.90
2018-09-19T03:05:18.474Z,3.20
2018-09-19T03:07:47.018Z,3.67
2018-09-19T03:10:15.553Z,3.60
2018-09-19T03:12:44.134Z,3.47
2018-09-19T03:15:12.857Z,3.57
2018-09-19T03:17:41.504Z,3.77
2018-09-19T03:20:09.950Z,4.03
2018-09-19T03:22:38.844Z,3.57
2018-09-19T03:25:07.393Z,3.20
2018-09-19T03:27:35.908Z,4.10
2018-09-19T03:30:05.046Z,3.73
2018-09-19T03:32:33.569Z,3.63
2018-09-19T03:35:02.186Z,3.17
2018-09-19T03:37:30.719Z,3.63
2018-09-19T03:39:59.230Z,4.27
2018-09-19T03:42:27.749Z,3.50
2018-09-19T03:44:56.270Z,4.00
2018-09-19T03:47:24.805Z,4.13
2018-09-19T03:49:53.366Z,3.77
2018-09-19T03:52:21.899Z,3.97
2018-09-19T03:54:50.418Z,3.37
2018-09-19T03:57:18.943Z,4.07
2018-09-19T03:59:47.478Z,3.97
2018-09-19T04:02:16.025Z,3.40
2018-09-19T04:04:44.563Z,4.33
2018-09-19T04:07:13.452Z,3.67
2018-09-19T04:09:41.955Z,3.93
2018-09-19T04:12:10.523Z,4.70
2018-09-19T04:14:39.043Z,4.00
2018-09-19T04:17:07.558Z,3.63
2018-09-19T04:19:36.061Z,4.00
2018-09-19T04:22:04.573Z,4.20
2018-09-19T04:24:33.212Z,4.07
2018-09-19T04:27:01.754Z,4.80
2018-09-19T04:29:30.275Z,3.87
2018-09-19T04:31:59.049Z,4.47
2018-09-19T04:34:27.575Z,4.23
2018-09-19T04:36:56.108Z,3.93
2018-09-19T04:39:24.677Z,3.93
2018-09-19T04:41:53.188Z,4.70
2018-09-19T04:44:21.713Z,4.17
2018-09-19T04:46:50.253Z,4.00
2018-09-19T04:49:18.784Z,4.93
2018-09-19T04:51:47.326Z,4.57
2018-09-19T04:54:15.936Z,4.40
2018-09-19T04:56:44.481Z,5.20
2018-09-19T04:59:13.048Z,5.27
2018-09-19T05:01:42.130Z,7.27
2018-09-19T05:04:10.661Z,7.63
2018-09-19T05:06:39.193Z,8.17
2018-09-19T05:09:08.938Z,9.03
2018-09-19T05:11:37.474Z,8.20
2018-09-19T05:14:06.199Z,8.63
2018-09-19T05:16:34.709Z,9.13
2018-09-19T05:19:03.221Z,10.57
2018-09-19T05:21:32.072Z,13.30
2018-09-19T05:24:00.581Z,16.47
2018-09-19T05:26:29.107Z,19.20
2018-09-19T05:28:57.633Z,20.63
2018-09-19T05:31:26.163Z,21.40
2018-09-19T05:33:54.693Z,24.87
2018-09-19T05:36:23.601Z,22.30
2018-09-19T05:38:52.127Z,21.23
2018-09-19T05:41:20.661Z,20.63
2018-09-19T05:43:49.183Z,19.67
2018-09-19T05:46:17.733Z,21.13
2018-09-19T05:48:46.250Z,20.03
2018-09-19T05:51:14.799Z,19.70
2018-09-19T05:53:43.347Z,17.77
2018-09-19T05:56:11.958Z,16.10
2018-09-19T05:58:40.478Z,16.83
2018-09-19T06:01:08.998Z,17.13
2018-09-19T06:03:37.532Z,15.73
2018-09-19T06:06:06.324Z,15.07
2018-09-19T06:08:34.818Z,14.80
2018-09-19T06:11:03.359Z,14.37
2018-09-19T06:13:31.890Z,12.33
2018-09-19T06:16:00.459Z,11.37
2018-09-19T06:18:28.999Z,10.03
2018-09-19T06:20:57.517Z,10.73
2018-09-19T06:23:26.037Z,9.87
2018-09-19T06:25:54.553Z,8.07
2018-09-19T06:28:23.097Z,8.40
2018-09-19T06:30:51.655Z,7.80
2018-09-19T06:33:20.230Z,8.00
2018-09-19T06:35:48.741Z,8.03
2018-09-19T06:38:17.249Z,7.90
2018-09-19T06:40:45.913Z,8.85
2018-09-19T06:43:15.035Z,8.03
2018-09-19T06:45:43.664Z,8.03
2018-09-19T06:48:12.173Z,8.63
2018-09-19T06:50:41.092Z,8.87
2018-09-19T06:53:09.636Z,8.87
2018-09-19T06:55:38.210Z,8.03
2018-09-19T06:58:07.253Z,8.00
2018-09-19T07:00:35.766Z,9.10
2018-09-19T07:03:04.333Z,8.23
2018-09-19T07:05:32.893Z,10.03
2018-09-19T07:08:01.456Z,8.30
2018-09-19T07:10:29.997Z,9.20
2018-09-19T07:12:58.606Z,9.60
2018-09-19T07:15:27.170Z,8.70
2018-09-19T07:17:55.721Z,9.33
2018-09-19T07:20:24.278Z,8.93
2018-09-19T07:22:54.555Z,9.33
2018-09-19T07:25:23.081Z,9.20
2018-09-19T07:27:51.708Z,8.73
2018-09-19T07:30:20.231Z,9.93
2018-09-19T07:32:48.787Z,8.53
2018-09-19T07:35:17.322Z,9.00
2018-09-19T07:37:45.856Z,9.93
2018-09-19T07:40:14.392Z,10.00
2018-09-19T07:42:42.954Z,8.70
2018-09-19T07:45:11.546Z,8.90
2018-09-19T07:47:40.064Z,8.53
2018-09-19T07:50:09.037Z,8.50
2018-09-19T07:52:37.559Z,8.73
2018-09-19T07:55:06.234Z,8.93
2018-09-19T07:57:34.798Z,8.30
2018-09-19T08:00:03.322Z,8.87
2018-09-19T08:02:31.862Z,8.43
2018-09-19T08:05:00.474Z,8.47
2018-09-19T08:07:29.014Z,9.57
2018-09-19T08:09:57.543Z,8.83
2018-09-19T08:12:26.067Z,9.37
2018-09-19T08:14:54.614Z,9.53
2018-09-19T08:17:23.265Z,9.00
2018-09-19T08:19:51.812Z,8.67
2018-09-19T08:22:20.362Z,9.10
2018-09-19T08:24:49.104Z,8.20
2018-09-19T08:27:18.713Z,8.13
2018-09-19T08:29:47.229Z,7.30
2018-09-19T08:32:15.898Z,7.17
2018-09-19T08:34:44.430Z,7.33
2018-09-19T08:37:12.963Z,6.80
2018-09-19T08:39:41.497Z,7.60
2018-09-19T08:42:10.094Z,7.27
2018-09-19T08:44:38.615Z,7.40
2018-09-19T08:47:07.195Z,7.00
2018-09-19T08:49:35.729Z,6.93
2018-09-19T08:52:04.314Z,7.37
2018-09-19T08:54:32.830Z,6.80
2018-09-19T08:57:01.490Z,6.73
2018-09-19T08:59:30.026Z,6.50
2018-09-19T09:01:58.534Z,6.37
2018-09-19T09:04:27.120Z,7.57
2018-09-19T09:06:55.649Z,6.13
2018-09-19T09:09:24.290Z,6.40
2018-09-19T09:11:53.291Z,6.73
2018-09-19T09:14:21.910Z,6.23
2018-09-19T09:16:50.457Z,5.63
2018-09-19T09:19:19.504Z,5.80
2018-09-19T09:21:48.032Z,6.40
2018-09-19T09:24:16.691Z,5.60
2018-09-19T09:26:45.264Z,6.03
2018-09-19T09:29:13.835Z,5.20
2018-09-19T09:31:42.366Z,5.90
2018-09-19T09:34:11.359Z,5.43
2018-09-19T09:36:39.892Z,5.20
2018-09-19T09:39:08.439Z,5.43
2018-09-19T09:41:36.953Z,4.97
2018-09-19T09:44:05.497Z,5.17
2018-09-19T09:46:34.012Z,5.10
2018-09-19T09:49:02.544Z,5.30
2018-09-19T09:51:31.134Z,4.40
2018-09-19T09:53:59.651Z,5.30
2018-09-19T09:56:28.198Z,4.87
2018-09-19T09:58:56.721Z,5.00
2018-09-19T10:01:25.274Z,4.40
2018-09-19T10:03:53.785Z,4.90
2018-09-19T10:06:22.342Z,4.90
2018-09-19T10:08:50.856Z,3.90
2018-09-19T10:11:19.579Z,4.90
2018-09-19T10:13:48.157Z,4.70
2018-09-19T10:16:16.653Z,4.57
2018-09-19T10:18:45.178Z,4.47
2018-09-19T10:21:13.743Z,4.43
2018-09-19T10:23:42.252Z,3.83
2018-09-19T10:26:10.792Z,3.67
2018-09-19T10:28:39.401Z,4.83
2018-09-19T10:31:07.940Z,4.10
2018-09-19T10:33:36.521Z,4.20
2018-09-19T10:36:05.033Z,4.20
2018-09-19T10:38:33.760Z,3.83
2018-09-19T10:41:02.369Z,4.33
2018-09-19T10:43:30.887Z,4.13
2018-09-19T10:45:59.427Z,4.03
2018-09-19T10:48:27.947Z,4.37
2018-09-19T10:50:56.473Z,4.10
2018-09-19T10:53:24.985Z,3.83
2018-09-19T10:55:53.519Z,4.47
2018-09-19T10:58:22.237Z,4.13
2018-09-19T11:00:50.772Z,3.63
2018-09-19T11:03:19.349Z,3.80
2018-09-19T11:05:47.893Z,3.97
2018-09-19T11:08:16.437Z,4.00
2018-09-19T11:10:45.053Z,3.77
2018-09-19T11:13:13.585Z,4.55
2018-09-19T11:15:42.186Z,3.67
2018-09-19T11:18:10.711Z,3.37
2018-09-19T11:20:39.465Z,3.55
2018-09-19T11:23:08.033Z,3.47
2018-09-19T11:25:36.613Z,3.27
2018-09-19T11:29:08.301Z,3.95
2018-09-19T11:31:36.853Z,3.55
2018-09-19T11:34:05.576Z,4.15
2018-09-19T11:36:34.089Z,3.77
2018-09-19T11:39:02.701Z,3.70
2018-09-19T11:41:31.209Z,3.70
2018-09-19T11:43:59.803Z,4.03
2018-09-19T11:46:28.459Z,3.42
2018-09-19T11:48:57.440Z,3.85
2018-09-19T11:51:25.993Z,3.67
2018-09-19T11:53:54.518Z,3.72
2018-09-19T11:56:23.046Z,3.67
2018-09-19T11:58:51.585Z,3.35
2018-09-19T12:01:20.099Z,3.20
2018-09-19T12:03:48.654Z,3.67
2018-09-19T12:06:17.170Z,3.47
2018-09-19T12:08:45.705Z,3.90
2018-09-19T12:11:14.226Z,3.30
2018-09-19T12:13:42.773Z,3.58
2018-09-19T12:16:11.347Z,3.87
2018-09-19T12:18:39.930Z,3.30
2018-09-19T12:21:08.452Z,3.12
2018-09-19T12:23:37.003Z,3.30
2018-09-19T12:26:05.557Z,3.58
2018-09-19T12:28:34.126Z,3.22
2018-09-19T12:31:02.678Z,3.10
2018-09-19T12:33:31.195Z,3.00
2018-09-19T12:35:59.709Z,3.10
2018-09-19T12:38:28.234Z,3.80
2018-09-19T12:40:56.778Z,3.60
2018-09-19T12:43:25.299Z,3.12
2018-09-19T12:45:54.018Z,2.85
2018-09-19T12:48:22.533Z,3.08
2018-09-19T12:50:51.045Z,3.60
2018-09-19T12:53:22.677Z,3.58
2018-09-19T12:55:51.288Z,3.40
2018-09-19T12:58:19.937Z,2.87
2018-09-19T13:00:48.983Z,2.67
2018-09-19T13:03:17.534Z,3.15
2018-09-19T13:05:46.101Z,3.40
2018-09-19T13:08:14.611Z,2.87
2018-09-19T13:10:43.112Z,3.37
2018-09-19T13:13:11.643Z,2.67
2018-09-19T13:15:40.178Z,3.08
2018-09-19T13:18:08.761Z,3.37
2018-09-19T13:20:37.322Z,3.12
2018-09-19T13:23:05.853Z,3.62
2018-09-19T13:25:34.406Z,3.80
2018-09-19T13:28:02.944Z,2.90
2018-09-19T13:30:31.533Z,3.25
2018-09-19T13:33:00.099Z,3.67
2018-09-19T13:35:28.629Z,3.10
2018-09-19T13:37:57.287Z,3.45
2018-09-19T13:40:25.850Z,3.65
2018-09-19T13:42:54.427Z,2.90
2018-09-19T13:45:22.984Z,2.95
2018-09-19T13:47:51.502Z,3.25
2018-09-19T13:50:43.145Z,3.50
2018-09-19T13:53:11.687Z,3.67
2018-09-19T13:55:40.205Z,3.85
2018-09-19T13:58:08.742Z,3.37
2018-09-19T14:00:37.279Z,3.00
2018-09-19T14:03:05.851Z,3.03
2018-09-19T14:05:34.386Z,3.33
2018-09-19T14:08:02.931Z,3.13
2018-09-19T14:10:31.461Z,3.33
2018-09-19T14:13:00.001Z,3.35
2018-09-19T14:15:28.546Z,3.47
2018-09-19T14:17:57.093Z,3.47
2018-09-19T14:20:25.606Z,3.45
2018-09-19T14:22:54.146Z,2.87
2018-09-19T14:25:22.666Z,3.08
2018-09-19T14:27:51.224Z,3.30
2018-09-19T14:30:19.813Z,3.50
2018-09-19T14:32:48.702Z,3.33
2018-09-19T14:35:17.273Z,3.17
2018-09-19T14:37:45.818Z,3.37
2018-09-19T14:40:14.348Z,3.23
2018-09-19T14:42:42.914Z,3.12
2018-09-19T14:45:11.466Z,3.30
2018-09-19T14:47:39.991Z,3.60
2018-09-19T14:50:08.798Z,3.70
2018-09-19T14:52:37.318Z,3.47
2018-09-19T14:55:05.847Z,3.37
2018-09-19T14:57:34.408Z,3.03
2018-09-19T15:00:02.934Z,3.50
2018-09-19T15:02:31.453Z,3.22
2018-09-19T15:05:00.499Z,2.90
2018-09-19T15:07:29.033Z,2.77
2018-09-19T15:09:57.579Z,3.10
2018-09-19T15:12:26.108Z,2.87
2018-09-19T15:14:54.661Z,2.97
2018-09-19T15:17:23.382Z,3.02
2018-09-19T15:19:51.930Z,2.92
2018-09-19T15:22:20.522Z,3.07
2018-09-19T15:24:49.038Z,2.73
2018-09-19T15:27:17.957Z,2.80
2018-09-19T15:29:46.741Z,2.90
2018-09-19T15:32:15.270Z,2.50
2018-09-19T15:34:43.850Z,2.87
2018-09-19T15:37:12.374Z,2.60
2018-09-19T15:39:40.895Z,2.75
2018-09-19T15:42:09.425Z,2.67
2018-09-19T15:44:37.970Z,2.35
2018-09-19T15:47:06.474Z,2.90
2018-09-19T15:49:36.439Z,2.70
2018-09-19T15:52:04.979Z,2.70
2018-09-19T15:54:35.038Z,2.60
2018-09-19T15:57:05.302Z,2.53
2018-09-19T15:59:35.633Z,2.50
2018-09-19T16:02:04.189Z,2.67
2018-09-19T16:04:32.720Z,2.40
2018-09-19T16:07:01.449Z,2.50
2018-09-19T16:09:30.941Z,2.53
2018-09-19T16:11:59.751Z,2.77
2018-09-19T16:14:29.026Z,2.90
2018-09-19T16:16:58.239Z,2.40
2018-09-19T16:19:26.842Z,2.67
2018-09-19T16:21:55.470Z,3.20
2018-09-19T16:24:23.999Z,3.10
2018-09-19T16:26:52.522Z,3.00
2018-09-19T16:29:21.071Z,2.47
2018-09-19T16:31:49.610Z,3.03
2018-09-19T16:34:18.153Z,2.87
2018-09-19T16:36:46.697Z,2.80
2018-09-19T16:39:15.236Z,2.97
2018-09-19T16:41:43.809Z,3.27
2018-09-19T16:44:12.582Z,3.03
2018-09-19T16:46:41.102Z,3.10
2018-09-19T16:49:10.073Z,3.17
2018-09-19T16:51:38.585Z,2.80
2018-09-19T16:54:07.220Z,2.60
2018-09-19T16:56:35.777Z,3.47
2018-09-19T16:59:04.335Z,2.70
2018-09-19T17:01:32.920Z,3.40
2018-09-19T17:04:01.447Z,3.40
2018-09-19T17:06:30.010Z,2.73
2018-09-19T17:08:58.576Z,2.83
2018-09-19T17:11:27.141Z,2.87
2018-09-19T17:13:56.160Z,2.83
2018-09-19T17:16:24.729Z,3.30
2018-09-19T17:18:53.259Z,2.70
2018-09-19T17:21:21.792Z,2.73
2018-09-19T17:23:50.305Z,2.60
2018-09-19T17:26:18.846Z,3.17
2018-09-19T17:28:47.622Z,3.00
2018-09-19T17:31:16.157Z,3.00
2018-09-19T17:33:44.682Z,2.60
2018-09-19T17:36:13.209Z,2.73
2018-09-19T17:38:41.730Z,2.53
2018-09-19T17:41:10.321Z,2.80
2018-09-19T17:43:38.868Z,2.40
2018-09-19T17:46:07.418Z,2.77
2018-09-19T17:48:36.002Z,2.80
2018-09-19T17:51:04.574Z,2.63
2018-09-19T17:53:34.354Z,2.80
2018-09-19T17:56:03.324Z,2.67
2018-09-19T17:58:31.866Z,2.03
2018-09-19T18:01:02.666Z,2.77
2018-09-19T18:03:40.680Z,2.73
2018-09-19T18:06:19.011Z,2.97
2018-09-19T18:08:50.838Z,2.47
2018-09-19T18:11:20.211Z,2.47
2018-09-19T18:14:03.977Z,2.57
2018-09-19T18:19:17.962Z,2.70
2018-09-19T18:21:50.730Z,2.70
2018-09-19T18:24:19.268Z,2.90
2018-09-19T18:26:47.796Z,2.57
2018-09-19T18:29:16.324Z,2.60
2018-09-19T18:31:44.890Z,3.07
2018-09-19T18:34:13.440Z,2.70
2018-09-19T18:36:49.993Z,2.47
2018-09-19T18:39:33.845Z,3.03
2018-09-19T18:42:11.207Z,3.00
2018-09-19T18:45:07.859Z,3.03
2018-09-19T18:47:51.194Z,3.10
2018-09-19T18:50:21.742Z,2.97
2018-09-19T18:53:13.258Z,2.80
2018-09-19T18:55:42.629Z,3.00
2018-09-19T18:58:11.168Z,2.53
2018-09-19T19:00:42.473Z,2.60
2018-09-19T19:03:13.251Z,2.93
2018-09-19T19:05:42.786Z,2.80
2018-09-19T19:08:11.903Z,3.17
2018-09-19T19:10:49.017Z,2.50
2018-09-19T19:13:29.872Z,3.47
2018-09-19T19:16:12.469Z,3.10
2018-09-19T19:18:56.474Z,2.53
2018-09-19T19:21:25.118Z,2.83
2018-09-19T19:23:54.043Z,3.27
2018-09-19T19:26:22.595Z,2.50
2018-09-19T19:28:51.148Z,3.30
2018-09-19T19:31:19.712Z,2.63
2018-09-19T19:33:48.282Z,3.07
2018-09-19T19:36:16.884Z,2.80
2018-09-19T19:38:45.452Z,3.17
2018-09-19T19:41:14.517Z,2.37
2018-09-19T19:43:43.191Z,2.93
2018-09-19T19:46:11.790Z,2.63
2018-09-19T19:48:40.385Z,3.20
2018-09-19T19:51:09.230Z,3.70
2018-09-19T19:53:38.550Z,3.20
2018-09-19T19:56:07.252Z,3.40
2018-09-19T19:58:35.821Z,3.60
2018-09-19T20:01:04.434Z,3.13
2018-09-19T20:03:33.095Z,3.10
2018-09-19T20:06:01.666Z,3.40
2018-09-19T20:08:33.446Z,3.13
2018-09-19T20:11:01.986Z,3.20
2018-09-19T20:13:30.550Z,3.10
2018-09-19T20:15:59.279Z,3.57
2018-09-19T20:18:27.839Z,3.27
2018-09-19T20:20:56.421Z,3.07
2018-09-19T20:23:24.994Z,3.47
2018-09-19T20:25:53.588Z,3.30
2018-09-19T20:28:35.082Z,3.47
2018-09-19T20:31:05.526Z,3.87
2018-09-19T20:36:26.197Z,3.13
2018-09-19T20:39:01.558Z,3.97
2018-09-19T20:41:34.705Z,3.37
2018-09-19T20:44:17.821Z,3.83
2018-09-19T20:46:46.472Z,3.07
2018-09-19T20:49:14.998Z,3.53
2018-09-19T20:51:43.631Z,3.20
2018-09-19T20:54:12.165Z,3.67
2018-09-19T20:56:40.711Z,3.77
2018-09-19T20:59:09.301Z,3.40
2018-09-19T21:01:37.898Z,3.40
2018-09-19T21:04:06.486Z,3.97
2018-09-19T21:06:39.715Z,3.13
2018-09-19T21:09:09.322Z,3.63
2018-09-19T21:11:37.886Z,3.70
2018-09-19T21:14:06.618Z,4.00
2018-09-19T21:16:35.517Z,3.43
2018-09-19T21:19:08.835Z,4.00
2018-09-19T21:21:37.714Z,3.37
2018-09-19T21:24:06.339Z,4.33
2018-09-19T21:26:35.181Z,4.03
2018-09-19T21:29:04.694Z,3.63
2018-09-19T21:31:33.370Z,4.00
2018-09-19T21:34:01.981Z,3.33
2018-09-19T21:36:30.975Z,3.77
2018-09-19T21:39:01.321Z,3.67
2018-09-19T21:41:35.014Z,3.47
2018-09-19T21:44:05.621Z,4.10
2018-09-19T21:46:35.149Z,3.57
2018-09-19T21:49:03.876Z,3.60
2018-09-19T21:51:32.905Z,3.70
2018-09-19T21:54:01.778Z,3.33
2018-09-19T21:56:30.350Z,4.07
2018-09-19T21:58:58.918Z,3.17
2018-09-19T22:01:32.894Z,3.70
2018-09-19T22:04:01.677Z,4.00
2018-09-19T22:09:13.671Z,3.37
2018-09-19T22:11:50.672Z,3.43
2018-09-19T22:14:19.206Z,3.97
2018-09-19T22:16:47.738Z,3.27
2018-09-19T22:19:16.327Z,3.40
2018-09-19T22:21:45.329Z,3.70
2018-09-19T22:24:13.867Z,3.60
2018-09-19T22:26:43.449Z,3.57
2018-09-19T22:29:15.254Z,4.13
2018-09-19T22:31:44.261Z,3.77
2018-09-19T22:34:12.841Z,3.60
2018-09-19T22:36:41.759Z,3.67
2018-09-19T22:39:10.498Z,4.10
2018-09-19T22:41:39.040Z,3.80
2018-09-19T22:44:07.573Z,3.17
2018-09-19T22:46:36.088Z,3.17
2018-09-19T22:49:04.614Z,3.20
2018-09-19T22:51:38.301Z,3.20
2018-09-19T22:54:09.454Z,4.03
2018-09-19T22:56:37.975Z,3.40
2018-09-19T22:59:06.488Z,3.73
2018-09-19T23:01:35.063Z,3.67
2018-09-19T23:04:03.590Z,4.03
2018-09-19T23:06:32.434Z,3.20
2018-09-19T23:09:00.946Z,3.87
2018-09-19T23:11:29.465Z,3.43
2018-09-19T23:13:57.978Z,4.03
2018-09-19T23:16:26.554Z,3.70
2018-09-19T23:18:55.093Z,4.37
2018-09-19T23:21:23.697Z,4.00
2018-09-19T23:23:52.257Z,3.80
2018-09-19T23:26:20.781Z,3.37
2018-09-19T23:28:49.309Z,3.40
2018-09-19T23:31:17.839Z,4.17
2018-09-19T23:33:46.344Z,3.97
2018-09-19T23:36:14.894Z,4.30
2018-09-19T23:38:43.426Z,3.80
2018-09-19T23:41:11.950Z,3.70
2018-09-19T23:43:40.741Z,3.80
2018-09-19T23:46:09.247Z,3.63
2018-09-19T23:48:37.787Z,3.83
2018-09-19T23:51:05.961Z,3.73
2018-09-19T23:53:35.489Z,3.53
2018-09-19T23:56:08.753Z,4.23
2018-09-19T23:58:48.610Z,3.77
